createdAt,value
2019-01-14T00:00:48.731Z,983.80
2019-01-14T00:01:48.643Z,983.85
2019-01-14T00:02:48.556Z,983.95
2019-01-14T00:03:48.731Z,983.92
2019-01-14T00:04:55.283Z,983.81
2019-01-14T00:05:48.295Z,984.00
2019-01-14T00:06:48.219Z,984.04
2019-01-14T00:07:48.130Z,984.09
2019-01-14T00:08:48.065Z,984.00
2019-01-14T00:09:47.958Z,983.97
2019-01-14T00:10:47.869Z,984.21
2019-01-14T00:11:47.786Z,984.13
2019-01-14T00:12:47.706Z,984.24
2019-01-14T00:13:47.620Z,984.13
2019-01-14T00:14:47.532Z,984.19
2019-01-14T00:15:47.446Z,984.14
2019-01-14T00:16:47.358Z,984.20
2019-01-14T00:17:47.282Z,984.17
2019-01-14T00:18:47.203Z,984.29
2019-01-14T00:19:47.110Z,984.24
2019-01-14T00:20:47.021Z,984.35
2019-01-14T00:21:46.932Z,984.34
2019-01-14T00:22:46.849Z,984.40
2019-01-14T00:23:46.771Z,984.52
2019-01-14T00:24:46.683Z,984.54
2019-01-14T00:25:46.596Z,984.40
2019-01-14T00:26:46.509Z,984.58
2019-01-14T00:27:46.420Z,984.58
2019-01-14T00:28:46.347Z,984.52
2019-01-14T00:29:46.258Z,984.61
2019-01-14T00:30:46.172Z,984.62
2019-01-14T00:31:46.090Z,984.64
2019-01-14T00:32:46.000Z,984.60
2019-01-14T00:33:45.909Z,984.70
2019-01-14T00:34:45.834Z,984.67
2019-01-14T00:35:45.749Z,984.84
2019-01-14T00:36:45.659Z,984.95
2019-01-14T00:37:45.577Z,984.84
2019-01-14T00:38:45.485Z,984.96
2019-01-14T00:39:45.398Z,984.87
2019-01-14T00:40:45.324Z,985.03
2019-01-14T00:41:45.234Z,985.11
2019-01-14T00:42:45.148Z,985.06
2019-01-14T00:43:45.060Z,985.08
2019-01-14T00:44:44.973Z,985.02
2019-01-14T00:45:44.885Z,985.01
2019-01-14T00:46:44.811Z,984.99
2019-01-14T00:47:44.725Z,984.94
2019-01-14T00:48:44.635Z,985.04
2019-01-14T00:49:44.550Z,985.06
2019-01-14T00:50:44.461Z,985.33
2019-01-14T00:51:44.375Z,985.11
2019-01-14T00:52:44.299Z,985.14
2019-01-14T00:53:44.213Z,985.17
2019-01-14T00:54:44.124Z,985.18
2019-01-14T00:55:44.036Z,985.26
2019-01-14T00:56:43.951Z,985.28
2019-01-14T00:57:43.862Z,985.22
2019-01-14T00:58:43.787Z,985.33
2019-01-14T00:59:43.700Z,985.28
2019-01-14T01:00:43.612Z,985.37
2019-01-14T01:01:43.525Z,985.44
2019-01-14T01:02:43.450Z,985.25
2019-01-14T01:03:43.362Z,985.52
2019-01-14T01:04:43.275Z,985.47
2019-01-14T01:05:43.201Z,985.53
2019-01-14T01:06:43.117Z,985.47
2019-01-14T01:07:43.014Z,985.56
2019-01-14T01:08:42.948Z,985.68
2019-01-14T01:09:42.839Z,985.66
2019-01-14T01:10:42.763Z,985.68
2019-01-14T01:11:42.675Z,985.90
2019-01-14T01:12:42.588Z,985.73
2019-01-14T01:13:42.501Z,985.74
2019-01-14T01:14:42.413Z,985.70
2019-01-14T01:15:42.364Z,985.72
2019-01-14T01:16:42.252Z,985.85
2019-01-14T01:17:42.163Z,985.93
2019-01-14T01:18:42.082Z,985.91
2019-01-14T01:19:41.989Z,985.83
2019-01-14T01:20:41.901Z,985.80
2019-01-14T01:21:41.826Z,985.87
2019-01-14T01:22:41.751Z,985.88
2019-01-14T01:23:41.652Z,985.92
2019-01-14T01:24:41.564Z,985.84
2019-01-14T01:25:41.480Z,985.91
2019-01-14T01:26:41.390Z,985.96
2019-01-14T01:27:41.319Z,985.99
2019-01-14T01:28:41.227Z,985.97
2019-01-14T01:29:41.144Z,986.03
2019-01-14T01:30:41.054Z,986.04
2019-01-14T01:31:40.968Z,986.01
2019-01-14T01:32:40.878Z,986.06
2019-01-14T01:33:40.792Z,986.03
2019-01-14T01:34:40.715Z,986.10
2019-01-14T01:35:40.629Z,986.11
2019-01-14T01:36:40.541Z,986.06
2019-01-14T01:37:40.454Z,986.17
2019-01-14T01:38:40.379Z,986.13
2019-01-14T01:39:40.280Z,986.10
2019-01-14T01:40:40.204Z,986.15
2019-01-14T01:41:40.116Z,986.06
2019-01-14T01:42:40.031Z,986.12
2019-01-14T01:43:39.942Z,986.27
2019-01-14T01:44:39.855Z,986.20
2019-01-14T01:45:39.767Z,986.30
2019-01-14T01:46:39.692Z,986.34
2019-01-14T01:47:39.604Z,986.32
2019-01-14T01:48:39.516Z,986.34
2019-01-14T01:49:39.430Z,986.46
2019-01-14T01:50:39.342Z,986.51
2019-01-14T01:51:39.254Z,986.52
2019-01-14T01:52:39.169Z,986.55
2019-01-14T01:53:39.094Z,986.69
2019-01-14T01:54:39.009Z,986.69
2019-01-14T01:55:38.917Z,986.68
2019-01-14T01:56:38.830Z,986.73
2019-01-14T01:57:38.742Z,986.81
2019-01-14T01:58:38.658Z,986.72
2019-01-14T01:59:38.569Z,986.83
2019-01-14T02:00:38.493Z,986.77
2019-01-14T02:01:38.406Z,987.02
2019-01-14T02:02:38.321Z,986.96
2019-01-14T02:03:38.231Z,986.87
2019-01-14T02:04:38.144Z,986.90
2019-01-14T02:05:38.057Z,987.00
2019-01-14T02:06:39.282Z,986.89
2019-01-14T02:07:37.893Z,987.05
2019-01-14T02:08:38.065Z,987.00
2019-01-14T02:09:37.732Z,987.16
2019-01-14T02:10:37.632Z,987.02
2019-01-14T02:11:37.544Z,987.05
2019-01-14T02:12:37.458Z,987.18
2019-01-14T02:13:37.369Z,987.11
2019-01-14T02:14:37.294Z,987.37
2019-01-14T02:15:37.208Z,987.11
2019-01-14T02:16:37.119Z,987.19
2019-01-14T02:17:37.034Z,987.25
2019-01-14T02:18:36.944Z,987.33
2019-01-14T02:19:36.863Z,987.27
2019-01-14T02:20:36.770Z,987.20
2019-01-14T02:21:36.696Z,987.27
2019-01-14T02:22:36.608Z,987.36
2019-01-14T02:23:36.770Z,987.35
2019-01-14T02:24:36.434Z,987.32
2019-01-14T02:25:36.358Z,987.51
2019-01-14T02:26:36.259Z,987.42
2019-01-14T02:27:36.173Z,987.36
2019-01-14T02:28:36.096Z,987.35
2019-01-14T02:29:36.010Z,987.46
2019-01-14T02:30:35.922Z,987.51
2019-01-14T02:31:35.834Z,987.44
2019-01-14T02:32:35.747Z,987.59
2019-01-14T02:33:35.660Z,987.59
2019-01-14T02:34:35.573Z,987.55
2019-01-14T02:35:35.497Z,987.54
2019-01-14T02:36:35.411Z,987.57
2019-01-14T02:37:35.323Z,987.67
2019-01-14T02:38:35.236Z,987.62
2019-01-14T02:39:35.147Z,987.62
2019-01-14T02:40:35.059Z,987.73
2019-01-14T02:41:34.974Z,987.63
2019-01-14T02:42:34.886Z,987.64
2019-01-14T02:43:35.061Z,987.73
2019-01-14T02:44:34.724Z,987.68
2019-01-14T02:45:34.637Z,987.70
2019-01-14T02:46:34.548Z,987.72
2019-01-14T02:47:34.461Z,987.80
2019-01-14T02:48:34.374Z,987.99
2019-01-14T02:49:34.287Z,987.91
2019-01-14T02:50:34.211Z,988.01
2019-01-14T02:51:34.124Z,987.97
2019-01-14T02:52:39.563Z,988.02
2019-01-14T02:53:33.949Z,988.01
2019-01-14T02:54:33.866Z,988.14
2019-01-14T02:55:33.774Z,988.06
2019-01-14T02:56:33.700Z,988.12
2019-01-14T02:57:33.612Z,988.07
2019-01-14T02:58:33.537Z,988.08
2019-01-14T02:59:33.437Z,988.17
2019-01-14T03:00:33.349Z,988.22
2019-01-14T03:01:33.265Z,988.42
2019-01-14T03:02:33.176Z,988.33
2019-01-14T03:03:33.109Z,988.32
2019-01-14T03:04:33.013Z,988.35
2019-01-14T03:05:32.937Z,988.45
2019-01-14T03:06:32.838Z,988.32
2019-01-14T03:07:32.750Z,988.46
2019-01-14T03:08:32.664Z,988.50
2019-01-14T03:09:32.575Z,988.55
2019-01-14T03:10:32.500Z,988.50
2019-01-14T03:11:32.413Z,988.58
2019-01-14T03:12:32.329Z,988.62
2019-01-14T03:13:32.240Z,988.64
2019-01-14T03:14:32.150Z,988.71
2019-01-14T03:15:32.064Z,988.69
2019-01-14T03:16:31.989Z,988.77
2019-01-14T03:17:31.901Z,988.70
2019-01-14T03:18:31.816Z,988.67
2019-01-14T03:19:31.726Z,988.89
2019-01-14T03:20:31.640Z,988.85
2019-01-14T03:21:31.551Z,988.87
2019-01-14T03:22:31.466Z,988.80
2019-01-14T03:23:31.377Z,988.95
2019-01-14T03:24:31.301Z,988.83
2019-01-14T03:25:31.217Z,988.83
2019-01-14T03:26:31.127Z,989.03
2019-01-14T03:27:31.051Z,989.09
2019-01-14T03:28:30.952Z,989.13
2019-01-14T03:29:30.866Z,989.06
2019-01-14T03:30:30.780Z,989.06
2019-01-14T03:31:30.703Z,989.11
2019-01-14T03:32:30.618Z,989.11
2019-01-14T03:33:30.529Z,989.18
2019-01-14T03:34:30.441Z,989.16
2019-01-14T03:35:30.359Z,989.27
2019-01-14T03:36:30.278Z,989.27
2019-01-14T03:37:30.179Z,989.27
2019-01-14T03:38:30.106Z,989.28
2019-01-14T03:39:30.017Z,989.38
2019-01-14T03:40:29.928Z,989.30
2019-01-14T03:41:29.842Z,989.43
2019-01-14T03:42:29.754Z,989.40
2019-01-14T03:43:29.668Z,989.45
2019-01-14T03:44:29.591Z,989.56
2019-01-14T03:45:29.504Z,989.43
2019-01-14T03:46:29.417Z,989.39
2019-01-14T03:47:29.333Z,989.48
2019-01-14T03:48:29.243Z,989.41
2019-01-14T03:49:29.153Z,989.41
2019-01-14T03:50:29.068Z,989.49
2019-01-14T03:51:28.981Z,989.46
2019-01-14T03:52:28.905Z,989.68
2019-01-14T03:53:28.819Z,989.59
2019-01-14T03:54:28.732Z,989.62
2019-01-14T03:55:28.644Z,989.55
2019-01-14T03:56:28.568Z,989.56
2019-01-14T03:57:28.468Z,989.58
2019-01-14T03:58:28.382Z,989.61
2019-01-14T03:59:28.307Z,989.65
2019-01-14T04:00:28.219Z,989.72
2019-01-14T04:01:28.130Z,989.74
2019-01-14T04:02:28.053Z,989.64
2019-01-14T04:03:27.957Z,989.75
2019-01-14T04:04:27.874Z,989.83
2019-01-14T04:05:27.792Z,989.72
2019-01-14T04:06:27.706Z,989.96
2019-01-14T04:07:27.620Z,989.83
2019-01-14T04:08:27.530Z,989.83
2019-01-14T04:09:27.447Z,989.94
2019-01-14T04:10:27.356Z,989.98
2019-01-14T04:11:27.270Z,989.88
2019-01-14T04:12:27.194Z,989.84
2019-01-14T04:13:27.108Z,989.98
2019-01-14T04:14:27.025Z,989.96
2019-01-14T04:15:26.933Z,990.08
2019-01-14T04:16:26.845Z,990.04
2019-01-14T04:17:26.757Z,990.05
2019-01-14T04:18:27.020Z,990.11
2019-01-14T04:19:26.582Z,990.12
2019-01-14T04:20:26.509Z,990.12
2019-01-14T04:21:26.422Z,990.18
2019-01-14T04:22:26.333Z,990.18
2019-01-14T04:23:26.246Z,990.17
2019-01-14T04:24:26.158Z,990.19
2019-01-14T04:25:26.076Z,990.26
2019-01-14T04:26:25.984Z,990.21
2019-01-14T04:27:25.898Z,990.29
2019-01-14T04:28:25.810Z,990.24
2019-01-14T04:29:25.734Z,990.25
2019-01-14T04:30:25.646Z,990.36
2019-01-14T04:31:25.560Z,990.42
2019-01-14T04:32:25.473Z,990.42
2019-01-14T04:33:25.384Z,990.32
2019-01-14T04:34:25.299Z,990.36
2019-01-14T04:35:25.209Z,990.43
2019-01-14T04:36:25.135Z,990.46
2019-01-14T04:37:25.036Z,990.42
2019-01-14T04:38:25.209Z,990.58
2019-01-14T04:39:24.873Z,990.56
2019-01-14T04:40:24.785Z,990.54
2019-01-14T04:41:24.698Z,990.73
2019-01-14T04:42:24.611Z,990.59
2019-01-14T04:43:24.535Z,990.71
2019-01-14T04:44:24.435Z,990.62
2019-01-14T04:45:24.350Z,990.76
2019-01-14T04:46:24.263Z,990.71
2019-01-14T04:47:24.186Z,990.87
2019-01-14T04:48:24.100Z,990.82
2019-01-14T04:49:24.022Z,990.88
2019-01-14T04:50:23.924Z,990.93
2019-01-14T04:51:23.848Z,990.86
2019-01-14T04:52:23.751Z,990.98
2019-01-14T04:53:23.662Z,990.94
2019-01-14T04:54:23.575Z,990.96
2019-01-14T04:55:23.487Z,990.92
2019-01-14T04:56:23.402Z,990.97
2019-01-14T04:57:23.326Z,990.89
2019-01-14T04:58:23.225Z,991.00
2019-01-14T04:59:23.153Z,990.90
2019-01-14T05:00:23.062Z,990.92
2019-01-14T05:01:22.976Z,990.99
2019-01-14T05:02:22.887Z,991.02
2019-01-14T05:03:22.801Z,990.96
2019-01-14T05:04:22.711Z,991.04
2019-01-14T05:05:22.626Z,991.09
2019-01-14T05:06:22.537Z,991.10
2019-01-14T05:07:29.310Z,991.08
2019-01-14T05:08:22.364Z,991.07
2019-01-14T05:09:22.276Z,990.94
2019-01-14T05:10:22.187Z,990.93
2019-01-14T05:11:22.102Z,991.11
2019-01-14T05:12:22.023Z,991.16
2019-01-14T05:13:21.926Z,991.17
2019-01-14T05:14:21.859Z,991.19
2019-01-14T05:15:21.768Z,991.14
2019-01-14T05:16:21.682Z,991.05
2019-01-14T05:17:21.588Z,991.04
2019-01-14T05:18:21.751Z,991.13
2019-01-14T05:19:21.413Z,991.16
2019-01-14T05:20:21.339Z,991.20
2019-01-14T05:21:21.239Z,991.13
2019-01-14T05:22:21.152Z,991.12
2019-01-14T05:23:21.065Z,991.14
2019-01-14T05:24:20.977Z,991.17
2019-01-14T05:25:20.889Z,991.23
2019-01-14T05:26:20.804Z,991.16
2019-01-14T05:27:20.716Z,991.11
2019-01-14T05:28:20.628Z,991.21
2019-01-14T05:29:20.540Z,991.10
2019-01-14T05:30:20.465Z,991.14
2019-01-14T05:31:20.378Z,991.16
2019-01-14T05:32:20.293Z,991.14
2019-01-14T05:33:20.204Z,991.21
2019-01-14T05:34:20.115Z,991.17
2019-01-14T05:35:20.030Z,991.22
2019-01-14T05:36:19.954Z,991.20
2019-01-14T05:37:19.854Z,991.12
2019-01-14T05:38:19.766Z,991.24
2019-01-14T05:39:19.679Z,991.14
2019-01-14T05:40:19.591Z,991.24
2019-01-14T05:41:19.505Z,991.22
2019-01-14T05:42:19.425Z,991.20
2019-01-14T05:43:19.329Z,991.22
2019-01-14T05:44:19.254Z,991.32
2019-01-14T05:45:19.166Z,991.13
2019-01-14T05:46:19.081Z,991.30
2019-01-14T05:47:19.008Z,991.24
2019-01-14T05:48:18.906Z,991.35
2019-01-14T05:49:18.818Z,991.34
2019-01-14T05:50:18.735Z,991.33
2019-01-14T05:51:18.643Z,991.27
2019-01-14T05:52:18.554Z,991.33
2019-01-14T05:53:18.467Z,991.18
2019-01-14T05:54:18.388Z,991.29
2019-01-14T05:55:18.293Z,991.24
2019-01-14T05:56:18.206Z,991.26
2019-01-14T05:57:18.118Z,991.25
2019-01-14T05:58:18.043Z,991.27
2019-01-14T05:59:17.955Z,991.26
2019-01-14T06:00:17.868Z,991.30
2019-01-14T06:01:17.783Z,991.29
2019-01-14T06:02:17.730Z,991.26
2019-01-14T06:03:17.607Z,991.30
2019-01-14T06:04:17.518Z,991.30
2019-01-14T06:05:17.439Z,991.35
2019-01-14T06:06:17.344Z,991.37
2019-01-14T06:07:17.256Z,991.41
2019-01-14T06:08:17.168Z,991.39
2019-01-14T06:09:17.082Z,991.39
2019-01-14T06:10:17.000Z,991.30
2019-01-14T06:11:16.919Z,991.42
2019-01-14T06:12:16.833Z,991.36
2019-01-14T06:13:16.744Z,991.36
2019-01-14T06:14:16.657Z,991.30
2019-01-14T06:15:16.571Z,991.31
2019-01-14T06:16:18.354Z,991.33
2019-01-14T06:17:16.395Z,991.33
2019-01-14T06:18:16.309Z,991.38
2019-01-14T06:19:16.234Z,991.32
2019-01-14T06:20:16.135Z,991.40
2019-01-14T06:21:16.045Z,991.42
2019-01-14T06:22:15.959Z,991.41
2019-01-14T06:23:15.870Z,991.42
2019-01-14T06:24:15.786Z,991.55
2019-01-14T06:25:15.704Z,991.60
2019-01-14T06:26:15.609Z,991.60
2019-01-14T06:27:15.534Z,991.60
2019-01-14T06:28:15.448Z,991.62
2019-01-14T06:29:15.364Z,991.50
2019-01-14T06:30:15.284Z,991.59
2019-01-14T06:31:15.187Z,991.49
2019-01-14T06:32:15.096Z,991.71
2019-01-14T06:33:15.010Z,991.67
2019-01-14T06:34:14.923Z,991.74
2019-01-14T06:35:14.836Z,991.77
2019-01-14T06:36:14.747Z,991.86
2019-01-14T06:37:14.664Z,991.81
2019-01-14T06:38:14.573Z,991.85
2019-01-14T06:39:14.486Z,991.85
2019-01-14T06:40:14.399Z,991.74
2019-01-14T06:41:14.310Z,991.84
2019-01-14T06:42:14.223Z,991.94
2019-01-14T06:43:14.135Z,991.94
2019-01-14T06:44:14.048Z,992.04
2019-01-14T06:45:13.972Z,992.03
2019-01-14T06:46:13.873Z,992.01
2019-01-14T06:47:13.813Z,992.02
2019-01-14T06:48:13.712Z,992.06
2019-01-14T06:49:13.623Z,992.17
2019-01-14T06:50:13.536Z,992.13
2019-01-14T06:51:13.449Z,992.26
2019-01-14T06:52:13.361Z,992.30
2019-01-14T06:53:13.274Z,992.32
2019-01-14T06:54:13.189Z,992.35
2019-01-14T06:55:13.100Z,992.45
2019-01-14T06:56:13.013Z,992.38
2019-01-14T06:57:12.924Z,992.37
2019-01-14T06:58:13.087Z,992.38
2019-01-14T06:59:12.765Z,992.47
2019-01-14T07:00:12.662Z,992.45
2019-01-14T07:01:12.576Z,992.61
2019-01-14T07:02:12.490Z,992.70
2019-01-14T07:03:12.400Z,992.76
2019-01-14T07:04:12.313Z,992.71
2019-01-14T07:05:12.226Z,992.69
2019-01-14T07:06:12.139Z,992.75
2019-01-14T07:07:12.063Z,992.80
2019-01-14T07:08:11.977Z,992.73
2019-01-14T07:09:11.889Z,992.84
2019-01-14T07:10:11.801Z,992.85
2019-01-14T07:11:11.714Z,992.89
2019-01-14T07:12:11.626Z,992.90
2019-01-14T07:13:11.542Z,992.95
2019-01-14T07:14:11.457Z,992.84
2019-01-14T07:15:11.365Z,992.99
2019-01-14T07:16:11.289Z,992.92
2019-01-14T07:17:11.189Z,992.97
2019-01-14T07:18:11.101Z,992.99
2019-01-14T07:19:11.021Z,993.05
2019-01-14T07:20:10.934Z,993.01
2019-01-14T07:21:10.851Z,993.15
2019-01-14T07:22:10.752Z,993.11
2019-01-14T07:23:10.679Z,993.25
2019-01-14T07:24:10.590Z,993.07
2019-01-14T07:25:10.502Z,993.28
2019-01-14T07:26:10.417Z,993.18
2019-01-14T07:27:10.327Z,993.24
2019-01-14T07:28:10.244Z,993.29
2019-01-14T07:29:10.154Z,993.17
2019-01-14T07:30:10.069Z,993.28
2019-01-14T07:31:09.978Z,993.35
2019-01-14T07:32:09.893Z,993.27
2019-01-14T07:33:09.803Z,993.33
2019-01-14T07:34:09.718Z,993.29
2019-01-14T07:35:09.628Z,993.29
2019-01-14T07:36:09.540Z,993.26
2019-01-14T07:37:09.452Z,993.28
2019-01-14T07:38:09.369Z,993.36
2019-01-14T07:39:09.279Z,993.34
2019-01-14T07:40:09.197Z,993.41
2019-01-14T07:41:09.104Z,993.48
2019-01-14T07:42:09.018Z,993.48
2019-01-14T07:43:08.941Z,993.40
2019-01-14T07:44:08.853Z,993.46
2019-01-14T07:45:08.769Z,993.50
2019-01-14T07:46:08.679Z,993.53
2019-01-14T07:47:08.593Z,993.63
2019-01-14T07:48:08.504Z,993.61
2019-01-14T07:49:08.418Z,993.64
2019-01-14T07:50:08.329Z,993.66
2019-01-14T07:51:08.243Z,993.65
2019-01-14T07:52:08.154Z,993.74
2019-01-14T07:53:08.071Z,993.71
2019-01-14T07:54:07.980Z,993.69
2019-01-14T07:55:07.896Z,993.70
2019-01-14T07:56:07.807Z,993.73
2019-01-14T07:57:07.719Z,993.76
2019-01-14T07:58:07.881Z,993.76
2019-01-14T07:59:07.543Z,993.79
2019-01-14T08:00:07.468Z,993.82
2019-01-14T08:01:07.388Z,993.87
2019-01-14T08:02:07.295Z,993.92
2019-01-14T08:03:07.206Z,993.88
2019-01-14T08:04:07.119Z,993.90
2019-01-14T08:05:07.031Z,993.89
2019-01-14T08:06:06.979Z,993.94
2019-01-14T08:07:06.862Z,993.91
2019-01-14T08:08:13.696Z,993.98
2019-01-14T08:09:06.682Z,994.04
2019-01-14T08:10:06.595Z,993.97
2019-01-14T08:11:06.507Z,994.02
2019-01-14T08:12:06.420Z,994.09
2019-01-14T08:13:06.332Z,994.05
2019-01-14T08:14:06.245Z,994.13
2019-01-14T08:15:06.158Z,994.22
2019-01-14T08:16:06.084Z,994.08
2019-01-14T08:17:05.996Z,994.24
2019-01-14T08:18:05.908Z,994.18
2019-01-14T08:19:05.820Z,994.11
2019-01-14T08:20:05.732Z,994.23
2019-01-14T08:21:05.645Z,994.21
2019-01-14T08:22:05.558Z,994.22
2019-01-14T08:23:05.471Z,994.29
2019-01-14T08:24:05.383Z,994.37
2019-01-14T08:25:05.298Z,994.23
2019-01-14T08:26:05.222Z,994.27
2019-01-14T08:27:05.121Z,994.26
2019-01-14T08:28:05.034Z,994.28
2019-01-14T08:29:04.952Z,994.34
2019-01-14T08:30:04.871Z,994.30
2019-01-14T08:31:04.788Z,994.31
2019-01-14T08:32:04.698Z,994.40
2019-01-14T08:33:04.612Z,994.46
2019-01-14T08:34:04.522Z,994.30
2019-01-14T08:35:04.434Z,994.33
2019-01-14T08:36:04.347Z,994.37
2019-01-14T08:37:04.260Z,994.34
2019-01-14T08:38:04.172Z,994.44
2019-01-14T08:39:04.088Z,994.36
2019-01-14T08:40:04.009Z,994.42
2019-01-14T08:41:03.910Z,994.40
2019-01-14T08:42:03.849Z,994.42
2019-01-14T08:43:03.749Z,994.52
2019-01-14T08:44:03.660Z,994.45
2019-01-14T08:45:03.573Z,994.59
2019-01-14T08:46:03.485Z,994.44
2019-01-14T08:47:03.399Z,994.64
2019-01-14T08:48:03.310Z,994.47
2019-01-14T08:49:03.225Z,994.46
2019-01-14T08:50:03.136Z,994.45
2019-01-14T08:51:03.049Z,994.46
2019-01-14T08:52:02.962Z,994.49
2019-01-14T08:53:02.885Z,994.56
2019-01-14T08:54:02.799Z,994.59
2019-01-14T08:55:02.711Z,994.55
2019-01-14T08:56:02.624Z,994.65
2019-01-14T08:57:02.538Z,994.64
2019-01-14T08:58:02.450Z,994.63
2019-01-14T08:59:02.364Z,994.66
2019-01-14T09:00:02.276Z,994.69
2019-01-14T09:01:02.200Z,994.67
2019-01-14T09:02:02.099Z,994.68
2019-01-14T09:03:02.017Z,994.46
2019-01-14T09:04:01.929Z,994.71
2019-01-14T09:05:01.841Z,994.74
2019-01-14T09:06:01.762Z,994.75
2019-01-14T09:07:01.676Z,994.74
2019-01-14T09:08:01.587Z,994.68
2019-01-14T09:09:01.504Z,994.82
2019-01-14T09:10:01.413Z,994.87
2019-01-14T09:11:01.326Z,994.75
2019-01-14T09:12:01.238Z,994.83
2019-01-14T09:13:01.151Z,994.89
2019-01-14T09:14:01.064Z,994.91
2019-01-14T09:15:00.987Z,994.84
2019-01-14T09:16:00.889Z,994.82
2019-01-14T09:17:00.802Z,994.92
2019-01-14T09:18:02.876Z,994.90
2019-01-14T09:19:00.640Z,994.86
2019-01-14T09:20:00.552Z,994.93
2019-01-14T09:21:00.465Z,994.98
2019-01-14T09:22:00.377Z,994.97
2019-01-14T09:23:00.289Z,994.95
2019-01-14T09:24:00.205Z,995.05
2019-01-14T09:25:00.234Z,994.88
2019-01-14T09:26:00.027Z,994.96
2019-01-14T09:26:59.939Z,994.91
2019-01-14T09:27:59.855Z,994.93
2019-01-14T09:28:59.778Z,994.97
2019-01-14T09:29:59.690Z,995.07
2019-01-14T09:30:59.606Z,995.09
2019-01-14T09:31:59.515Z,995.06
2019-01-14T09:32:59.430Z,995.04
2019-01-14T09:33:59.341Z,995.09
2019-01-14T09:34:59.254Z,995.04
2019-01-14T09:35:59.222Z,995.10
2019-01-14T09:36:59.092Z,995.12
2019-01-14T09:37:59.005Z,995.22
2019-01-14T09:38:58.918Z,995.24
2019-01-14T09:39:58.829Z,995.24
2019-01-14T09:40:58.741Z,995.12
2019-01-14T09:41:58.654Z,995.13
2019-01-14T09:42:58.566Z,995.22
2019-01-14T09:43:58.480Z,995.26
2019-01-14T09:44:58.395Z,995.23
2019-01-14T09:45:58.317Z,995.16
2019-01-14T09:46:58.239Z,995.18
2019-01-14T09:47:58.144Z,995.18
2019-01-14T09:48:58.055Z,995.24
2019-01-14T09:49:57.967Z,995.24
2019-01-14T09:50:57.881Z,995.29
2019-01-14T09:51:57.793Z,995.21
2019-01-14T09:52:57.717Z,995.10
2019-01-14T09:53:57.630Z,995.15
2019-01-14T09:54:57.542Z,995.19
2019-01-14T09:55:57.457Z,995.13
2019-01-14T09:56:57.373Z,995.17
2019-01-14T09:57:57.281Z,995.16
2019-01-14T09:58:57.193Z,995.05
2019-01-14T09:59:57.107Z,995.11
2019-01-14T10:00:57.019Z,995.20
2019-01-14T10:01:56.943Z,995.14
2019-01-14T10:02:57.107Z,995.07
2019-01-14T10:03:56.782Z,995.17
2019-01-14T10:04:56.683Z,995.15
2019-01-14T10:05:56.594Z,995.18
2019-01-14T10:06:56.507Z,995.16
2019-01-14T10:07:56.419Z,995.12
2019-01-14T10:08:56.332Z,995.14
2019-01-14T10:09:56.245Z,995.00
2019-01-14T10:10:56.169Z,995.14
2019-01-14T10:11:56.083Z,995.21
2019-01-14T10:12:55.996Z,995.00
2019-01-14T10:13:55.908Z,995.01
2019-01-14T10:14:55.820Z,995.10
2019-01-14T10:15:55.733Z,995.11
2019-01-14T10:16:55.646Z,995.15
2019-01-14T10:17:55.822Z,995.13
2019-01-14T10:18:55.483Z,995.17
2019-01-14T10:19:55.408Z,995.05
2019-01-14T10:20:55.310Z,995.21
2019-01-14T10:21:55.221Z,995.20
2019-01-14T10:22:55.134Z,995.27
2019-01-14T10:23:55.045Z,995.26
2019-01-14T10:24:54.968Z,995.23
2019-01-14T10:25:54.873Z,995.25
2019-01-14T10:26:54.796Z,995.11
2019-01-14T10:27:54.709Z,995.12
2019-01-14T10:28:54.620Z,995.18
2019-01-14T10:29:54.537Z,995.13
2019-01-14T10:30:54.459Z,995.11
2019-01-14T10:31:54.361Z,995.22
2019-01-14T10:32:54.286Z,995.17
2019-01-14T10:33:54.199Z,995.20
2019-01-14T10:34:54.111Z,995.21
2019-01-14T10:35:54.022Z,995.27
2019-01-14T10:36:53.935Z,995.25
2019-01-14T10:37:53.850Z,995.22
2019-01-14T10:38:53.773Z,995.25
2019-01-14T10:39:53.686Z,995.18
2019-01-14T10:40:53.598Z,995.15
2019-01-14T10:41:53.511Z,995.20
2019-01-14T10:42:53.436Z,995.16
2019-01-14T10:43:53.349Z,995.22
2019-01-14T10:44:53.261Z,995.21
2019-01-14T10:45:53.174Z,995.21
2019-01-14T10:46:53.086Z,995.10
2019-01-14T10:47:53.011Z,995.17
2019-01-14T10:48:52.924Z,995.13
2019-01-14T10:49:52.837Z,995.15
2019-01-14T10:50:52.748Z,995.07
2019-01-14T10:51:52.687Z,995.15
2019-01-14T10:52:52.586Z,995.02
2019-01-14T10:53:52.499Z,995.12
2019-01-14T10:54:52.413Z,995.12
2019-01-14T10:55:52.325Z,995.25
2019-01-14T10:56:52.249Z,995.22
2019-01-14T10:57:52.164Z,995.16
2019-01-14T10:58:52.075Z,995.13
2019-01-14T10:59:52.001Z,995.15
2019-01-14T11:00:51.913Z,995.23
2019-01-14T11:01:51.825Z,995.26
2019-01-14T11:02:51.738Z,995.28
2019-01-14T11:03:51.663Z,995.23
2019-01-14T11:04:51.575Z,995.16
2019-01-14T11:05:51.490Z,995.26
2019-01-14T11:06:51.402Z,995.45
2019-01-14T11:07:51.328Z,995.24
2019-01-14T11:08:57.427Z,995.23
2019-01-14T11:09:51.154Z,995.29
2019-01-14T11:10:51.076Z,995.40
2019-01-14T11:11:50.989Z,995.29
2019-01-14T11:12:50.901Z,995.30
2019-01-14T11:13:50.826Z,995.44
2019-01-14T11:14:50.751Z,995.38
2019-01-14T11:15:50.651Z,995.54
2019-01-14T11:16:50.590Z,995.52
2019-01-14T11:17:50.740Z,995.47
2019-01-14T11:18:50.403Z,995.56
2019-01-14T11:19:50.316Z,995.59
2019-01-14T11:20:50.241Z,995.56
2019-01-14T11:21:50.152Z,995.53
2019-01-14T11:22:50.065Z,995.53
2019-01-14T11:23:49.990Z,995.61
2019-01-14T11:24:49.958Z,995.55
2019-01-14T11:25:49.815Z,995.67
2019-01-14T11:26:49.727Z,995.65
2019-01-14T11:27:49.652Z,995.70
2019-01-14T11:28:49.567Z,995.68
2019-01-14T11:29:49.491Z,995.71
2019-01-14T11:30:49.392Z,995.71
2019-01-14T11:31:49.316Z,995.68
2019-01-14T11:32:49.234Z,995.67
2019-01-14T11:33:49.142Z,995.76
2019-01-14T11:34:49.054Z,995.70
2019-01-14T11:35:48.993Z,995.72
2019-01-14T11:36:48.895Z,995.74
2019-01-14T11:37:48.805Z,995.76
2019-01-14T11:38:48.716Z,995.74
2019-01-14T11:39:48.642Z,995.84
2019-01-14T11:40:48.554Z,995.82
2019-01-14T11:41:48.468Z,995.68
2019-01-14T11:42:48.393Z,995.79
2019-01-14T11:43:48.306Z,995.87
2019-01-14T11:44:48.221Z,995.71
2019-01-14T11:45:48.129Z,995.72
2019-01-14T11:46:48.054Z,995.74
2019-01-14T11:47:47.967Z,995.79
2019-01-14T11:48:47.894Z,995.84
2019-01-14T11:49:47.794Z,995.80
2019-01-14T11:50:47.707Z,995.83
2019-01-14T11:51:47.631Z,995.75
2019-01-14T11:52:47.544Z,995.83
2019-01-14T11:53:47.455Z,995.78
2019-01-14T11:54:47.370Z,995.76
2019-01-14T11:55:47.294Z,995.91
2019-01-14T11:56:47.206Z,995.68
2019-01-14T11:57:47.119Z,995.88
2019-01-14T11:58:47.031Z,995.93
2019-01-14T11:59:46.957Z,995.86
2019-01-14T12:00:46.870Z,995.99
2019-01-14T12:01:46.785Z,996.12
2019-01-14T12:02:46.695Z,995.97
2019-01-14T12:03:46.606Z,996.11
2019-01-14T12:04:46.521Z,996.13
2019-01-14T12:05:46.445Z,996.17
2019-01-14T12:06:46.360Z,996.26
2019-01-14T12:07:46.272Z,996.26
2019-01-14T12:08:46.183Z,996.31
2019-01-14T12:09:46.095Z,996.33
2019-01-14T12:10:46.008Z,996.22
2019-01-14T12:11:45.936Z,996.18
2019-01-14T12:12:45.848Z,996.04
2019-01-14T12:13:45.758Z,996.18
2019-01-14T12:14:45.672Z,996.11
2019-01-14T12:15:45.584Z,996.12
2019-01-14T12:16:45.497Z,996.19
2019-01-14T12:17:45.421Z,996.03
2019-01-14T12:18:45.334Z,996.15
2019-01-14T12:19:45.248Z,995.99
2019-01-14T12:20:45.172Z,995.94
2019-01-14T12:21:45.072Z,995.97
2019-01-14T12:22:44.985Z,995.92
2019-01-14T12:23:44.909Z,996.09
2019-01-14T12:24:44.823Z,996.01
2019-01-14T12:25:44.736Z,996.06
2019-01-14T12:26:44.648Z,996.06
2019-01-14T12:27:44.572Z,996.03